sensor_id;sensor_type;location;lat;lon;timestamp;temperature;humidity
1415;DHT22;702;49.466;11.086;2023-06-14T00:00:53;16.30;45.20
1415;DHT22;702;49.466;11.086;2023-06-14T00:03:23;16.30;45.50
1415;DHT22;702;49.466;11.086;2023-06-14T00:05:51;16.30;45.60
1415;DHT22;702;49.466;11.086;2023-06-14T00:08:19;16.20;45.70
1415;DHT22;702;49.466;11.086;2023-06-14T00:10:48;16.20;45.90
1415;DHT22;702;49.466;11.086;2023-06-14T00:13:15;16.10;46.10
1415;DHT22;702;49.466;11.086;2023-06-14T00:15:45;16.10;46.20
1415;DHT22;702;49.466;11.086;2023-06-14T00:18:13;16.00;46.30
1415;DHT22;702;49.466;11.086;2023-06-14T00:20:43;15.90;46.50
1415;DHT22;702;49.466;11.086;2023-06-14T00:23:11;15.80;46.80
1415;DHT22;702;49.466;11.086;2023-06-14T00:25:39;15.80;46.90
1415;DHT22;702;49.466;11.086;2023-06-14T00:28:07;15.70;47.10
1415;DHT22;702;49.466;11.086;2023-06-14T00:30:35;15.70;47.30
1415;DHT22;702;49.466;11.086;2023-06-14T00:33:02;15.60;47.40
1415;DHT22;702;49.466;11.086;2023-06-14T00:35:31;15.60;47.60
1415;DHT22;702;49.466;11.086;2023-06-14T00:38:00;15.50;47.60
1415;DHT22;702;49.466;11.086;2023-06-14T00:40:27;15.50;47.80
1415;DHT22;702;49.466;11.086;2023-06-14T00:42:54;15.50;48.00
1415;DHT22;702;49.466;11.086;2023-06-14T00:45:22;15.40;48.00
1415;DHT22;702;49.466;11.086;2023-06-14T00:47:50;15.40;48.20
1415;DHT22;702;49.466;11.086;2023-06-14T00:50:21;15.30;48.30
1415;DHT22;702;49.466;11.086;2023-06-14T00:52:49;15.30;48.50
1415;DHT22;702;49.466;11.086;2023-06-14T00:55:18;15.20;48.70
1415;DHT22;702;49.466;11.086;2023-06-14T00:57:45;15.10;49.20
1415;DHT22;702;49.466;11.086;2023-06-14T01:00:14;15.10;49.40
1415;DHT22;702;49.466;11.086;2023-06-14T01:02:41;15.00;49.30
1415;DHT22;702;49.466;11.086;2023-06-14T01:05:09;14.90;49.80
1415;DHT22;702;49.466;11.086;2023-06-14T01:07:46;14.90;50.00
1415;DHT22;702;49.466;11.086;2023-06-14T01:10:32;14.80;50.10
1415;DHT22;702;49.466;11.086;2023-06-14T01:13:10;14.70;50.40
1415;DHT22;702;49.466;11.086;2023-06-14T01:15:41;14.70;50.60
1415;DHT22;702;49.466;11.086;2023-06-14T01:18:10;14.60;50.80
1415;DHT22;702;49.466;11.086;2023-06-14T01:20:45;14.50;51.40
1415;DHT22;702;49.466;11.086;2023-06-14T01:23:16;14.50;51.30
1415;DHT22;702;49.466;11.086;2023-06-14T01:25:43;14.40;51.50
1415;DHT22;702;49.466;11.086;2023-06-14T01:28:14;14.40;51.70
1415;DHT22;702;49.466;11.086;2023-06-14T01:30:44;14.30;51.80
1415;DHT22;702;49.466;11.086;2023-06-14T01:33:16;14.30;52.00
1415;DHT22;702;49.466;11.086;2023-06-14T01:35:46;14.30;52.30
1415;DHT22;702;49.466;11.086;2023-06-14T01:38:17;14.20;52.40
1415;DHT22;702;49.466;11.086;2023-06-14T01:40:48;14.20;52.50
1415;DHT22;702;49.466;11.086;2023-06-14T01:43:16;14.20;52.60
1415;DHT22;702;49.466;11.086;2023-06-14T01:45:46;14.20;52.80
1415;DHT22;702;49.466;11.086;2023-06-14T01:48:15;14.20;52.90
1415;DHT22;702;49.466;11.086;2023-06-14T01:50:42;14.10;52.90
1415;DHT22;702;49.466;11.086;2023-06-14T01:53:10;14.10;53.20
1415;DHT22;702;49.466;11.086;2023-06-14T01:55:39;14.00;53.40
1415;DHT22;702;49.466;11.086;2023-06-14T01:58:10;13.80;53.60
1415;DHT22;702;49.466;11.086;2023-06-14T02:00:37;13.80;54.00
1415;DHT22;702;49.466;11.086;2023-06-14T02:03:06;13.90;54.00
1415;DHT22;702;49.466;11.086;2023-06-14T02:05:33;13.90;54.20
1415;DHT22;702;49.466;11.086;2023-06-14T02:08:01;13.90;54.20
1415;DHT22;702;49.466;11.086;2023-06-14T02:10:29;13.80;54.30
1415;DHT22;702;49.466;11.086;2023-06-14T02:12:58;13.80;54.50
1415;DHT22;702;49.466;11.086;2023-06-14T02:15:25;13.80;54.50
1415;DHT22;702;49.466;11.086;2023-06-14T02:17:59;13.90;54.50
1415;DHT22;702;49.466;11.086;2023-06-14T02:20:27;13.90;54.40
1415;DHT22;702;49.466;11.086;2023-06-14T02:22:55;13.90;54.50
1415;DHT22;702;49.466;11.086;2023-06-14T02:25:23;13.90;54.50
1415;DHT22;702;49.466;11.086;2023-06-14T02:27:50;13.80;54.70
1415;DHT22;702;49.466;11.086;2023-06-14T02:30:19;13.80;54.80
1415;DHT22;702;49.466;11.086;2023-06-14T02:32:46;13.80;54.90
1415;DHT22;702;49.466;11.086;2023-06-14T02:35:14;13.80;54.80
1415;DHT22;702;49.466;11.086;2023-06-14T02:37:41;13.80;54.90
1415;DHT22;702;49.466;11.086;2023-06-14T02:40:09;13.70;55.00
1415;DHT22;702;49.466;11.086;2023-06-14T02:42:37;13.70;55.40
1415;DHT22;702;49.466;11.086;2023-06-14T02:45:05;13.60;55.20
1415;DHT22;702;49.466;11.086;2023-06-14T02:47:36;13.60;55.30
1415;DHT22;702;49.466;11.086;2023-06-14T02:50:03;13.50;55.50
1415;DHT22;702;49.466;11.086;2023-06-14T02:52:32;13.50;55.60
1415;DHT22;702;49.466;11.086;2023-06-14T02:54:59;13.40;56.00
1415;DHT22;702;49.466;11.086;2023-06-14T02:57:27;13.30;56.50
1415;DHT22;702;49.466;11.086;2023-06-14T02:59:54;13.10;57.10
1415;DHT22;702;49.466;11.086;2023-06-14T03:02:21;13.00;58.00
1415;DHT22;702;49.466;11.086;2023-06-14T03:04:50;13.00;58.00
1415;DHT22;702;49.466;11.086;2023-06-14T03:07:17;12.80;58.80
1415;DHT22;702;49.466;11.086;2023-06-14T03:09:46;12.70;59.60
1415;DHT22;702;49.466;11.086;2023-06-14T03:12:15;12.60;60.00
1415;DHT22;702;49.466;11.086;2023-06-14T03:14:42;12.50;60.90
1415;DHT22;702;49.466;11.086;2023-06-14T03:17:12;12.50;61.80
1415;DHT22;702;49.466;11.086;2023-06-14T03:19:40;12.60;61.70
1415;DHT22;702;49.466;11.086;2023-06-14T03:22:09;12.60;61.60
1415;DHT22;702;49.466;11.086;2023-06-14T03:24:37;12.60;61.50
1415;DHT22;702;49.466;11.086;2023-06-14T03:27:05;12.50;62.10
1415;DHT22;702;49.466;11.086;2023-06-14T03:29:33;12.60;62.20
1415;DHT22;702;49.466;11.086;2023-06-14T03:32:01;12.50;62.40
1415;DHT22;702;49.466;11.086;2023-06-14T03:34:30;12.50;62.60
1415;DHT22;702;49.466;11.086;2023-06-14T03:36:57;12.50;62.10
1415;DHT22;702;49.466;11.086;2023-06-14T03:39:26;12.60;62.50
1415;DHT22;702;49.466;11.086;2023-06-14T03:41:53;12.80;62.00
1415;DHT22;702;49.466;11.086;2023-06-14T03:44:21;12.80;61.70
1415;DHT22;702;49.466;11.086;2023-06-14T03:46:49;12.80;61.60
1415;DHT22;702;49.466;11.086;2023-06-14T03:49:16;12.80;61.90
1415;DHT22;702;49.466;11.086;2023-06-14T03:51:43;12.80;62.30
1415;DHT22;702;49.466;11.086;2023-06-14T03:54:16;12.90;62.50
1415;DHT22;702;49.466;11.086;2023-06-14T03:56:44;13.00;62.00
1415;DHT22;702;49.466;11.086;2023-06-14T03:59:12;13.10;61.40
1415;DHT22;702;49.466;11.086;2023-06-14T04:01:40;13.00;61.80
1415;DHT22;702;49.466;11.086;2023-06-14T04:04:13;13.20;62.40
1415;DHT22;702;49.466;11.086;2023-06-14T04:06:42;13.30;62.10
1415;DHT22;702;49.466;11.086;2023-06-14T04:09:09;14.00;61.20
1415;DHT22;702;49.466;11.086;2023-06-14T04:11:36;15.10;59.70
1415;DHT22;702;49.466;11.086;2023-06-14T04:14:05;16.00;56.70
1415;DHT22;702;49.466;11.086;2023-06-14T04:16:32;16.60;55.20
1415;DHT22;702;49.466;11.086;2023-06-14T04:19:00;17.10;54.30
1415;DHT22;702;49.466;11.086;2023-06-14T04:21:27;17.30;53.70
1415;DHT22;702;49.466;11.086;2023-06-14T04:23:55;17.70;52.80
1415;DHT22;702;49.466;11.086;2023-06-14T04:26:22;17.90;51.70
1415;DHT22;702;49.466;11.086;2023-06-14T04:28:55;17.70;51.50
1415;DHT22;702;49.466;11.086;2023-06-14T04:31:29;17.20;51.50
1415;DHT22;702;49.466;11.086;2023-06-14T04:33:59;16.70;52.00
1415;DHT22;702;49.466;11.086;2023-06-14T04:36:27;15.90;53.20
1415;DHT22;702;49.466;11.086;2023-06-14T04:38:54;15.40;54.30
1415;DHT22;702;49.466;11.086;2023-06-14T04:41:21;15.80;54.80
1415;DHT22;702;49.466;11.086;2023-06-14T04:43:57;16.90;53.60
1415;DHT22;702;49.466;11.086;2023-06-14T04:46:28;18.20;52.00
1415;DHT22;702;49.466;11.086;2023-06-14T04:48:55;19.30;50.50
1415;DHT22;702;49.466;11.086;2023-06-14T04:51:23;20.00;49.40
1415;DHT22;702;49.466;11.086;2023-06-14T04:53:55;20.20;48.70
1415;DHT22;702;49.466;11.086;2023-06-14T04:56:24;20.40;48.40
1415;DHT22;702;49.466;11.086;2023-06-14T04:58:51;20.80;48.00
1415;DHT22;702;49.466;11.086;2023-06-14T05:01:20;21.00;47.50
1415;DHT22;702;49.466;11.086;2023-06-14T05:03:50;21.20;47.90
1415;DHT22;702;49.466;11.086;2023-06-14T05:06:18;21.90;47.00
1415;DHT22;702;49.466;11.086;2023-06-14T05:08:45;22.00;46.90
1415;DHT22;702;49.466;11.086;2023-06-14T05:11:12;22.30;46.20
1415;DHT22;702;49.466;11.086;2023-06-14T05:13:40;22.30;46.40
1415;DHT22;702;49.466;11.086;2023-06-14T05:16:07;22.60;46.30
1415;DHT22;702;49.466;11.086;2023-06-14T05:18:34;22.50;45.80
1415;DHT22;702;49.466;11.086;2023-06-14T05:21:04;22.10;46.40
1415;DHT22;702;49.466;11.086;2023-06-14T05:23:31;21.80;46.40
1415;DHT22;702;49.466;11.086;2023-06-14T05:25:59;21.60;46.10
1415;DHT22;702;49.466;11.086;2023-06-14T05:28:28;20.20;46.90
1415;DHT22;702;49.466;11.086;2023-06-14T05:30:56;18.90;48.30
1415;DHT22;702;49.466;11.086;2023-06-14T05:33:24;17.90;49.50
1415;DHT22;702;49.466;11.086;2023-06-14T05:35:51;17.30;50.90
1415;DHT22;702;49.466;11.086;2023-06-14T05:38:20;16.90;51.80
1415;DHT22;702;49.466;11.086;2023-06-14T05:40:47;16.60;52.80
1415;DHT22;702;49.466;11.086;2023-06-14T05:43:15;16.30;53.50
1415;DHT22;702;49.466;11.086;2023-06-14T05:45:42;16.20;54.50
1415;DHT22;702;49.466;11.086;2023-06-14T05:48:09;16.30;54.70
1415;DHT22;702;49.466;11.086;2023-06-14T05:50:37;16.20;54.90
1415;DHT22;702;49.466;11.086;2023-06-14T05:53:04;16.30;55.60
1415;DHT22;702;49.466;11.086;2023-06-14T05:55:32;16.30;55.70
1415;DHT22;702;49.466;11.086;2023-06-14T05:58:00;16.40;56.10
1415;DHT22;702;49.466;11.086;2023-06-14T06:00:28;16.50;55.80
1415;DHT22;702;49.466;11.086;2023-06-14T06:02:55;16.70;55.80
1415;DHT22;702;49.466;11.086;2023-06-14T06:05:23;17.20;55.50
1415;DHT22;702;49.466;11.086;2023-06-14T06:07:51;18.00;54.70
1415;DHT22;702;49.466;11.086;2023-06-14T06:10:18;19.10;53.00
1415;DHT22;702;49.466;11.086;2023-06-14T06:12:47;19.70;52.20
1415;DHT22;702;49.466;11.086;2023-06-14T06:15:15;20.30;51.30
1415;DHT22;702;49.466;11.086;2023-06-14T06:17:42;19.60;51.30
1415;DHT22;702;49.466;11.086;2023-06-14T06:20:10;18.90;52.00
1415;DHT22;702;49.466;11.086;2023-06-14T06:22:38;19.00;52.60
1415;DHT22;702;49.466;11.086;2023-06-14T06:25:07;20.20;51.70
1415;DHT22;702;49.466;11.086;2023-06-14T06:27:35;20.90;50.60
1415;DHT22;702;49.466;11.086;2023-06-14T06:30:05;21.20;50.50
1415;DHT22;702;49.466;11.086;2023-06-14T06:32:33;21.60;49.90
1415;DHT22;702;49.466;11.086;2023-06-14T06:35:01;20.60;49.70
1415;DHT22;702;49.466;11.086;2023-06-14T06:37:31;19.50;51.10
1415;DHT22;702;49.466;11.086;2023-06-14T06:39:58;19.00;51.70
1415;DHT22;702;49.466;11.086;2023-06-14T06:42:26;18.60;52.20
1415;DHT22;702;49.466;11.086;2023-06-14T06:44:53;18.40;52.70
1415;DHT22;702;49.466;11.086;2023-06-14T06:47:22;18.50;52.90
1415;DHT22;702;49.466;11.086;2023-06-14T06:49:50;18.40;52.70
1415;DHT22;702;49.466;11.086;2023-06-14T06:52:18;18.30;53.00
1415;DHT22;702;49.466;11.086;2023-06-14T06:54:45;18.50;52.90
1415;DHT22;702;49.466;11.086;2023-06-14T06:57:12;18.50;52.60
1415;DHT22;702;49.466;11.086;2023-06-14T06:59:39;18.60;52.50
1415;DHT22;702;49.466;11.086;2023-06-14T07:02:06;18.60;52.60
1415;DHT22;702;49.466;11.086;2023-06-14T07:04:35;18.30;52.50
1415;DHT22;702;49.466;11.086;2023-06-14T07:07:03;18.40;52.80
1415;DHT22;702;49.466;11.086;2023-06-14T07:09:30;18.70;53.10
1415;DHT22;702;49.466;11.086;2023-06-14T07:11:57;19.00;53.00
1415;DHT22;702;49.466;11.086;2023-06-14T07:14:25;19.00;52.00
1415;DHT22;702;49.466;11.086;2023-06-14T07:16:52;18.60;52.60
1415;DHT22;702;49.466;11.086;2023-06-14T07:19:19;18.80;52.50
1415;DHT22;702;49.466;11.086;2023-06-14T07:21:48;18.80;51.80
1415;DHT22;702;49.466;11.086;2023-06-14T07:24:15;19.10;52.00
1415;DHT22;702;49.466;11.086;2023-06-14T07:26:42;19.20;51.40
1415;DHT22;702;49.466;11.086;2023-06-14T07:29:11;19.00;51.10
1415;DHT22;702;49.466;11.086;2023-06-14T07:31:38;19.30;51.30
1415;DHT22;702;49.466;11.086;2023-06-14T07:34:05;19.60;50.90
1415;DHT22;702;49.466;11.086;2023-06-14T07:36:33;19.70;50.40
1415;DHT22;702;49.466;11.086;2023-06-14T07:39:04;19.80;50.80
1415;DHT22;702;49.466;11.086;2023-06-14T07:41:32;19.90;50.20
1415;DHT22;702;49.466;11.086;2023-06-14T07:43:59;20.00;50.10
1415;DHT22;702;49.466;11.086;2023-06-14T07:46:27;19.80;49.40
1415;DHT22;702;49.466;11.086;2023-06-14T07:49:01;19.90;49.90
1415;DHT22;702;49.466;11.086;2023-06-14T07:51:33;20.00;49.50
1415;DHT22;702;49.466;11.086;2023-06-14T07:54:35;19.90;48.30
1415;DHT22;702;49.466;11.086;2023-06-14T07:57:13;19.80;48.50
1415;DHT22;702;49.466;11.086;2023-06-14T07:59:40;19.90;48.50
1415;DHT22;702;49.466;11.086;2023-06-14T08:02:08;20.00;48.80
1415;DHT22;702;49.466;11.086;2023-06-14T08:04:35;20.10;47.80
1415;DHT22;702;49.466;11.086;2023-06-14T08:07:02;20.20;48.10
1415;DHT22;702;49.466;11.086;2023-06-14T08:09:31;20.30;47.80
1415;DHT22;702;49.466;11.086;2023-06-14T08:11:58;20.10;47.40
1415;DHT22;702;49.466;11.086;2023-06-14T08:14:30;20.10;47.80
1415;DHT22;702;49.466;11.086;2023-06-14T08:17:08;20.20;47.80
1415;DHT22;702;49.466;11.086;2023-06-14T08:19:35;20.50;47.40
1415;DHT22;702;49.466;11.086;2023-06-14T08:22:04;20.20;46.60
1415;DHT22;702;49.466;11.086;2023-06-14T08:24:33;20.00;47.00
1415;DHT22;702;49.466;11.086;2023-06-14T08:27:02;19.90;46.90
1415;DHT22;702;49.466;11.086;2023-06-14T08:29:30;20.00;47.50
1415;DHT22;702;49.466;11.086;2023-06-14T08:31:58;20.30;47.00
1415;DHT22;702;49.466;11.086;2023-06-14T08:34:26;20.20;46.80
1415;DHT22;702;49.466;11.086;2023-06-14T08:36:53;20.30;47.70
1415;DHT22;702;49.466;11.086;2023-06-14T08:39:20;20.50;47.50
1415;DHT22;702;49.466;11.086;2023-06-14T08:41:50;20.70;46.90
1415;DHT22;702;49.466;11.086;2023-06-14T08:44:19;21.00;47.30
1415;DHT22;702;49.466;11.086;2023-06-14T08:46:48;21.30;47.20
1415;DHT22;702;49.466;11.086;2023-06-14T08:49:17;21.50;47.10
1415;DHT22;702;49.466;11.086;2023-06-14T08:51:44;21.60;47.30
1415;DHT22;702;49.466;11.086;2023-06-14T08:54:14;21.40;47.10
1415;DHT22;702;49.466;11.086;2023-06-14T08:56:42;21.30;46.60
1415;DHT22;702;49.466;11.086;2023-06-14T08:59:11;21.50;46.30
1415;DHT22;702;49.466;11.086;2023-06-14T09:01:40;21.40;45.90
1415;DHT22;702;49.466;11.086;2023-06-14T09:04:07;21.50;46.30
1415;DHT22;702;49.466;11.086;2023-06-14T09:06:34;21.40;45.80
1415;DHT22;702;49.466;11.086;2023-06-14T09:09:02;21.80;46.20
1415;DHT22;702;49.466;11.086;2023-06-14T09:11:31;22.20;45.90
1415;DHT22;702;49.466;11.086;2023-06-14T09:13:58;22.30;45.90
1415;DHT22;702;49.466;11.086;2023-06-14T09:16:31;22.30;46.30
1415;DHT22;702;49.466;11.086;2023-06-14T09:18:59;22.40;45.90
1415;DHT22;702;49.466;11.086;2023-06-14T09:21:26;22.70;45.30
1415;DHT22;702;49.466;11.086;2023-06-14T09:23:54;22.90;45.50
1415;DHT22;702;49.466;11.086;2023-06-14T09:26:23;23.10;44.60
1415;DHT22;702;49.466;11.086;2023-06-14T09:28:53;23.00;44.60
1415;DHT22;702;49.466;11.086;2023-06-14T09:31:21;22.80;44.40
1415;DHT22;702;49.466;11.086;2023-06-14T09:33:50;22.40;45.20
1415;DHT22;702;49.466;11.086;2023-06-14T09:36:24;22.40;44.90
1415;DHT22;702;49.466;11.086;2023-06-14T09:38:53;22.40;45.20
1415;DHT22;702;49.466;11.086;2023-06-14T09:41:31;22.40;45.20
1415;DHT22;702;49.466;11.086;2023-06-14T09:43:59;22.40;45.40
1415;DHT22;702;49.466;11.086;2023-06-14T09:46:28;22.60;44.30
1415;DHT22;702;49.466;11.086;2023-06-14T09:48:58;22.70;44.20
1415;DHT22;702;49.466;11.086;2023-06-14T09:51:28;22.60;44.30
1415;DHT22;702;49.466;11.086;2023-06-14T09:53:59;22.60;44.20
1415;DHT22;702;49.466;11.086;2023-06-14T09:56:29;22.40;43.70
1415;DHT22;702;49.466;11.086;2023-06-14T09:58:57;22.20;44.00
1415;DHT22;702;49.466;11.086;2023-06-14T10:01:27;22.10;44.30
1415;DHT22;702;49.466;11.086;2023-06-14T10:04:02;22.30;44.20
1415;DHT22;702;49.466;11.086;2023-06-14T10:06:31;22.30;44.00
1415;DHT22;702;49.466;11.086;2023-06-14T10:08:59;22.20;44.70
1415;DHT22;702;49.466;11.086;2023-06-14T10:11:27;22.10;44.00
1415;DHT22;702;49.466;11.086;2023-06-14T10:13:56;22.40;44.50
1415;DHT22;702;49.466;11.086;2023-06-14T10:16:28;22.70;43.90
1415;DHT22;702;49.466;11.086;2023-06-14T10:19:06;23.00;43.60
1415;DHT22;702;49.466;11.086;2023-06-14T10:21:46;23.10;43.70
1415;DHT22;702;49.466;11.086;2023-06-14T10:24:20;23.00;43.40
1415;DHT22;702;49.466;11.086;2023-06-14T10:26:54;23.10;43.50
1415;DHT22;702;49.466;11.086;2023-06-14T10:29:24;23.50;43.30
1415;DHT22;702;49.466;11.086;2023-06-14T10:31:56;23.40;43.60
1415;DHT22;702;49.466;11.086;2023-06-14T10:34:27;23.50;43.20
1415;DHT22;702;49.466;11.086;2023-06-14T10:37:05;23.90;43.40
1415;DHT22;702;49.466;11.086;2023-06-14T10:39:38;24.10;42.30
1415;DHT22;702;49.466;11.086;2023-06-14T10:42:07;24.00;42.40
1415;DHT22;702;49.466;11.086;2023-06-14T10:44:40;24.20;42.40
1415;DHT22;702;49.466;11.086;2023-06-14T10:47:10;24.10;42.60
1415;DHT22;702;49.466;11.086;2023-06-14T10:49:51;23.50;42.00
1415;DHT22;702;49.466;11.086;2023-06-14T10:52:22;23.40;42.20
1415;DHT22;702;49.466;11.086;2023-06-14T10:55:08;23.50;42.20
1415;DHT22;702;49.466;11.086;2023-06-14T10:57:38;23.40;42.30
1415;DHT22;702;49.466;11.086;2023-06-14T11:00:08;23.20;42.00
1415;DHT22;702;49.466;11.086;2023-06-14T11:02:52;23.50;42.00
1415;DHT22;702;49.466;11.086;2023-06-14T11:05:49;23.80;42.00
1415;DHT22;702;49.466;11.086;2023-06-14T11:11:38;25.00;41.60
1415;DHT22;702;49.466;11.086;2023-06-14T11:14:09;25.40;41.50
1415;DHT22;702;49.466;11.086;2023-06-14T11:16:37;25.60;41.80
1415;DHT22;702;49.466;11.086;2023-06-14T11:19:05;25.20;41.50
1415;DHT22;702;49.466;11.086;2023-06-14T11:21:34;25.00;41.60
1415;DHT22;702;49.466;11.086;2023-06-14T11:24:03;24.80;41.20
1415;DHT22;702;49.466;11.086;2023-06-14T11:26:31;24.40;41.20
1415;DHT22;702;49.466;11.086;2023-06-14T11:29:00;24.50;41.50
1415;DHT22;702;49.466;11.086;2023-06-14T11:31:28;24.20;41.50
1415;DHT22;702;49.466;11.086;2023-06-14T11:33:57;24.20;41.50
1415;DHT22;702;49.466;11.086;2023-06-14T11:36:26;24.20;41.30
1415;DHT22;702;49.466;11.086;2023-06-14T11:38:59;24.30;41.40
1415;DHT22;702;49.466;11.086;2023-06-14T11:41:32;24.20;41.00
1415;DHT22;702;49.466;11.086;2023-06-14T11:44:02;24.10;41.30
1415;DHT22;702;49.466;11.086;2023-06-14T11:46:29;24.00;41.80
1415;DHT22;702;49.466;11.086;2023-06-14T11:48:57;24.00;41.60
1415;DHT22;702;49.466;11.086;2023-06-14T11:51:24;24.30;41.50
1415;DHT22;702;49.466;11.086;2023-06-14T11:53:51;24.80;41.10
1415;DHT22;702;49.466;11.086;2023-06-14T11:56:21;25.00;41.10
1415;DHT22;702;49.466;11.086;2023-06-14T11:58:48;24.90;41.30
1415;DHT22;702;49.466;11.086;2023-06-14T12:01:17;25.00;41.90
1415;DHT22;702;49.466;11.086;2023-06-14T12:03:48;25.40;41.30
1415;DHT22;702;49.466;11.086;2023-06-14T12:06:15;25.70;40.90
1415;DHT22;702;49.466;11.086;2023-06-14T12:08:44;25.60;40.60
1415;DHT22;702;49.466;11.086;2023-06-14T12:11:15;25.40;40.60
1415;DHT22;702;49.466;11.086;2023-06-14T12:13:45;25.50;41.00
1415;DHT22;702;49.466;11.086;2023-06-14T12:16:12;25.70;40.60
1415;DHT22;702;49.466;11.086;2023-06-14T12:18:40;25.80;39.80
1415;DHT22;702;49.466;11.086;2023-06-14T12:21:09;25.80;39.10
1415;DHT22;702;49.466;11.086;2023-06-14T12:23:42;25.00;38.90
1415;DHT22;702;49.466;11.086;2023-06-14T12:26:13;24.80;39.60
1415;DHT22;702;49.466;11.086;2023-06-14T12:28:42;25.50;39.40
1415;DHT22;702;49.466;11.086;2023-06-14T12:31:12;25.90;38.90
1415;DHT22;702;49.466;11.086;2023-06-14T12:33:40;25.70;39.20
1415;DHT22;702;49.466;11.086;2023-06-14T12:36:09;25.00;39.70
1415;DHT22;702;49.466;11.086;2023-06-14T12:38:38;24.60;40.20
1415;DHT22;702;49.466;11.086;2023-06-14T12:41:05;24.30;40.30
1415;DHT22;702;49.466;11.086;2023-06-14T12:43:33;24.30;40.40
1415;DHT22;702;49.466;11.086;2023-06-14T12:46:02;24.30;40.30
1415;DHT22;702;49.466;11.086;2023-06-14T12:48:29;24.30;40.10
1415;DHT22;702;49.466;11.086;2023-06-14T12:50:57;24.40;39.90
1415;DHT22;702;49.466;11.086;2023-06-14T12:53:25;24.80;40.30
1415;DHT22;702;49.466;11.086;2023-06-14T12:55:52;25.20;40.20
1415;DHT22;702;49.466;11.086;2023-06-14T12:58:19;25.30;39.40
1415;DHT22;702;49.466;11.086;2023-06-14T13:00:47;25.20;39.30
1415;DHT22;702;49.466;11.086;2023-06-14T13:03:15;24.60;39.40
1415;DHT22;702;49.466;11.086;2023-06-14T13:05:43;24.60;39.60
1415;DHT22;702;49.466;11.086;2023-06-14T13:08:11;25.10;40.10
1415;DHT22;702;49.466;11.086;2023-06-14T13:10:39;25.40;39.80
1415;DHT22;702;49.466;11.086;2023-06-14T13:13:07;25.50;39.70
1415;DHT22;702;49.466;11.086;2023-06-14T13:15:38;25.90;40.00
1415;DHT22;702;49.466;11.086;2023-06-14T13:18:06;25.80;39.20
1415;DHT22;702;49.466;11.086;2023-06-14T13:20:35;25.00;39.10
1415;DHT22;702;49.466;11.086;2023-06-14T13:23:02;24.70;39.70
1415;DHT22;702;49.466;11.086;2023-06-14T13:25:31;24.40;39.40
1415;DHT22;702;49.466;11.086;2023-06-14T13:27:59;24.50;39.20
1415;DHT22;702;49.466;11.086;2023-06-14T13:30:27;24.80;39.90
1415;DHT22;702;49.466;11.086;2023-06-14T13:32:54;24.90;39.20
1415;DHT22;702;49.466;11.086;2023-06-14T13:35:23;25.10;39.50
1415;DHT22;702;49.466;11.086;2023-06-14T13:37:52;25.40;39.50
1415;DHT22;702;49.466;11.086;2023-06-14T13:40:19;25.30;38.80
1415;DHT22;702;49.466;11.086;2023-06-14T13:42:46;25.30;39.30
1415;DHT22;702;49.466;11.086;2023-06-14T13:45:15;25.30;39.00
1415;DHT22;702;49.466;11.086;2023-06-14T13:47:42;25.40;39.10
1415;DHT22;702;49.466;11.086;2023-06-14T13:50:10;25.40;38.90
1415;DHT22;702;49.466;11.086;2023-06-14T13:52:38;25.60;38.90
1415;DHT22;702;49.466;11.086;2023-06-14T13:55:08;25.40;38.90
1415;DHT22;702;49.466;11.086;2023-06-14T13:57:36;25.40;39.20
1415;DHT22;702;49.466;11.086;2023-06-14T14:00:04;25.60;39.20
1415;DHT22;702;49.466;11.086;2023-06-14T14:02:31;25.30;39.40
1415;DHT22;702;49.466;11.086;2023-06-14T14:04:59;25.10;39.30
1415;DHT22;702;49.466;11.086;2023-06-14T14:07:26;25.00;39.90
1415;DHT22;702;49.466;11.086;2023-06-14T14:09:55;24.80;39.60
1415;DHT22;702;49.466;11.086;2023-06-14T14:12:25;24.60;39.20
1415;DHT22;702;49.466;11.086;2023-06-14T14:14:54;24.70;39.70
1415;DHT22;702;49.466;11.086;2023-06-14T14:17:22;24.70;40.20
1415;DHT22;702;49.466;11.086;2023-06-14T14:19:49;24.70;40.10
1415;DHT22;702;49.466;11.086;2023-06-14T14:22:17;24.70;40.20
1415;DHT22;702;49.466;11.086;2023-06-14T14:24:45;24.70;40.20
1415;DHT22;702;49.466;11.086;2023-06-14T14:27:12;24.80;40.10
1415;DHT22;702;49.466;11.086;2023-06-14T14:29:41;24.80;39.90
1415;DHT22;702;49.466;11.086;2023-06-14T14:32:08;24.90;39.80
1415;DHT22;702;49.466;11.086;2023-06-14T14:34:39;24.90;39.40
1415;DHT22;702;49.466;11.086;2023-06-14T14:37:07;25.10;39.60
1415;DHT22;702;49.466;11.086;2023-06-14T14:39:34;25.20;39.40
1415;DHT22;702;49.466;11.086;2023-06-14T14:42:02;25.20;38.70
1415;DHT22;702;49.466;11.086;2023-06-14T14:44:29;25.10;38.80
1415;DHT22;702;49.466;11.086;2023-06-14T14:46:58;25.20;38.80
1415;DHT22;702;49.466;11.086;2023-06-14T14:49:26;25.40;38.50
1415;DHT22;702;49.466;11.086;2023-06-14T14:51:53;25.30;38.60
1415;DHT22;702;49.466;11.086;2023-06-14T14:54:22;25.70;38.40
1415;DHT22;702;49.466;11.086;2023-06-14T14:56:50;26.00;38.70
1415;DHT22;702;49.466;11.086;2023-06-14T14:59:18;26.40;38.30
1415;DHT22;702;49.466;11.086;2023-06-14T15:01:47;26.20;38.50
1415;DHT22;702;49.466;11.086;2023-06-14T15:04:19;25.90;39.00
1415;DHT22;702;49.466;11.086;2023-06-14T15:06:46;25.50;38.90
1415;DHT22;702;49.466;11.086;2023-06-14T15:09:13;25.60;38.80
1415;DHT22;702;49.466;11.086;2023-06-14T15:11:40;25.40;38.80
1415;DHT22;702;49.466;11.086;2023-06-14T15:14:09;25.50;38.80
1415;DHT22;702;49.466;11.086;2023-06-14T15:16:36;25.50;38.90
1415;DHT22;702;49.466;11.086;2023-06-14T15:19:04;25.60;38.60
1415;DHT22;702;49.466;11.086;2023-06-14T15:21:32;25.80;38.80
1415;DHT22;702;49.466;11.086;2023-06-14T15:24:01;25.70;38.40
1415;DHT22;702;49.466;11.086;2023-06-14T15:26:28;25.60;38.60
1415;DHT22;702;49.466;11.086;2023-06-14T15:28:55;25.50;38.50
1415;DHT22;702;49.466;11.086;2023-06-14T15:31:22;25.20;38.40
1415;DHT22;702;49.466;11.086;2023-06-14T15:33:53;25.20;38.30
1415;DHT22;702;49.466;11.086;2023-06-14T15:36:20;25.30;38.70
1415;DHT22;702;49.466;11.086;2023-06-14T15:38:49;25.30;38.80
1415;DHT22;702;49.466;11.086;2023-06-14T15:41:16;25.30;39.20
1415;DHT22;702;49.466;11.086;2023-06-14T15:43:44;25.30;38.40
1415;DHT22;702;49.466;11.086;2023-06-14T15:46:11;25.20;38.00
1415;DHT22;702;49.466;11.086;2023-06-14T15:48:38;24.70;37.70
1415;DHT22;702;49.466;11.086;2023-06-14T15:51:06;24.60;38.30
1415;DHT22;702;49.466;11.086;2023-06-14T15:53:33;24.80;37.30
1415;DHT22;702;49.466;11.086;2023-06-14T15:56:03;25.00;37.50
1415;DHT22;702;49.466;11.086;2023-06-14T15:58:30;25.20;38.30
1415;DHT22;702;49.466;11.086;2023-06-14T16:00:58;26.00;37.60
1415;DHT22;702;49.466;11.086;2023-06-14T16:03:26;26.60;36.90
1415;DHT22;702;49.466;11.086;2023-06-14T16:05:54;26.80;37.10
1415;DHT22;702;49.466;11.086;2023-06-14T16:08:21;27.20;37.10
1415;DHT22;702;49.466;11.086;2023-06-14T16:10:48;27.00;37.10
1415;DHT22;702;49.466;11.086;2023-06-14T16:13:17;26.60;37.60
1415;DHT22;702;49.466;11.086;2023-06-14T16:15:44;26.30;38.40